This is the latest recevied weather packets stored in our database for station/object W7TJC. If no packets are shown the sender has not sent any weather packets the latest 10 day(s).
| Time | Temp. | Humidity | Pressure | Rain* | Wind** | Luminosity | Snow |
|---|---|---|---|---|---|---|---|
| 1777925850 | 23.89° C | 53% | 1012 hPa | 0 mm | - | 696 W/m² | - |
| 1777925547 | 23.89° C | 54% | 1012 hPa | 0 mm | - | 756 W/m² | - |
| 1777925245 | 24.44° C | 52% | 1012.1 hPa | 0 mm | - | 697 W/m² | - |
| 1777924940 | 24.44° C | 53% | 1012.1 hPa | 0 mm | - | 680 W/m² | - |
| 1777924637 | 24.44° C | 54% | 1012.1 hPa | 0 mm | - | 563 W/m² | - |
| 1777924333 | 23.89° C | 55% | 1012.4 hPa | 0 mm | - | 475 W/m² | - |
| 1777924030 | 23.89° C | 55% | 1012.3 hPa | 0 mm | - | 533 W/m² | - |
| 1777923726 | 23.33° C | 56% | 1012.2 hPa | 0 mm | - | 660 W/m² | - |
| 1777923422 | 23.33° C | 55% | 1012.1 hPa | 0 mm | - | 517 W/m² | - |
| 1777923120 | 22.78° C | 57% | 1012.5 hPa | 0 mm | - | 602 W/m² | - |
| 1777922818 | 22.78° C | 58% | 1012.4 hPa | 0 mm | - | 608 W/m² | - |
| 1777922516 | 22.22° C | 57% | 1012.5 hPa | 0 mm | - | 580 W/m² | - |
| 1777922214 | 22.22° C | 58% | 1012.5 hPa | 0 mm | - | 557 W/m² | - |
| 1777921910 | 22.22° C | 58% | 1012.5 hPa | 0 mm | - | 608 W/m² | - |
| 1777921606 | 22.22° C | 58% | 1012.5 hPa | 0 mm | - | 588 W/m² | - |
| 1777921303 | 22.78° C | 56% | 1012.4 hPa | 0 mm | - | 618 W/m² | - |
| 1777920999 | 22.22° C | 58% | 1012.6 hPa | 0 mm | - | 705 W/m² | - |
| 1777920696 | 21.67° C | 60% | 1012.5 hPa | 0 mm | - | 721 W/m² | - |
| 1777920392 | 22.22° C | 57% | 1012.5 hPa | 0 mm | - | 715 W/m² | - |
| 1777920087 | 22.22° C | 58% | 1012.7 hPa | 0 mm | - | 672 W/m² | - |
| 1777919784 | 22.22° C | 60% | 1012.7 hPa | 0 mm | - | 658 W/m² | - |
| 1777919482 | 21.67° C | 61% | 1012.6 hPa | 0 mm | - | 690 W/m² | - |
| 1777919180 | 21.67° C | 61% | 1012.6 hPa | 0 mm | - | 668 W/m² | - |
| 1777918877 | 21.11° C | 61% | 1012.6 hPa | 0 mm | - | 667 W/m² | - |
| 1777918574 | 21.67° C | 61% | 1012.5 hPa | 0 mm | - | 620 W/m² | - |
* Rain latest hour (hover to see other rain measurements)
** Current wind speed in m/s (hover to see current wind gust speed)